Montserrat, Missouri
Current Conditions -  °F | °C
As of 8:58 AM on Saturday 25 Oct 2014 (Local Time) from KSZL Reporting Station
Haze Haze  
Wind Chill: 59°   Ceiling: Unl
Heat Index: 59°   Visibility: 6mi
Dew Point: 59°   Wind: 2mph
Humidity: 98%   Direction: 260°W
Pressure: 30.06"   Gusts: NA
Location:  38.673°N, 93.5632°W
Report Text: KSZL 251358Z AUTO 26002KT 6SM BR CLR 15/15 A3006 RMK AO2 SLP179 T01520149 $
Loading
Personal Weather Stations






























Interactive Weather Map
Tropical Storm Tracking
New forecast layout! Learn more

10-Day Weather Forecast

Advertisements
Track Severe Weather on mobile